Time;durP1;ratioP1;P1;durP2;ratioP2;P2;SDS_P1;SDS_P2;PMS_P1;PMS_P2;Temp;Humidity;BMP_temperature;BMP_pressure;BME280_temperature;BME280_humidity;BME280_pressure;Samples;Min_cycle;Max_cycle;Signal;HPM_P1;HPM_P2
2022/08/22 00:02:28;;;;;;;0.10;0.10;;;;;;;16.18;100.00;98143.35;1642451;87;25816;-67
2022/08/22 00:05:05;;;;;;;0.25;0.10;;;;;;;16.17;100.00;98140.95;1642528;87;30013;-67
2022/08/22 00:08:15;;;;;;;0.40;0.20;;;;;;;16.14;100.00;98146.63;1642334;87;26291;-68
2022/08/22 00:10:50;;;;;;;0.40;0.10;;;;;;;16.13;100.00;98141.47;1642174;87;25553;-66
2022/08/22 00:13:34;;;;;;;1.17;0.20;;;;;;;16.18;100.00;98132.90;1642685;87;27659;-67
2022/08/22 00:16:15;;;;;;;0.13;0.13;;;;;;;16.19;100.00;98131.72;1642232;87;26235;-67
2022/08/22 00:19:10;;;;;;;0.57;0.20;;;;;;;16.21;100.00;98136.31;1642352;87;25712;-66
2022/08/22 00:21:45;;;;;;;4.58;0.75;;;;;;;16.14;100.00;98138.34;1631079;88;25917;-66
2022/08/22 00:24:45;;;;;;;1.10;0.20;;;;;;;16.16;100.00;98149.84;1630961;88;25695;-66
2022/08/22 00:27:22;;;;;;;0.70;0.20;;;;;;;16.17;100.00;98143.72;1631589;84;27489;-66
2022/08/22 00:29:54;;;;;;;1.50;0.20;;;;;;;16.17;100.00;98138.19;1701530;84;26343;-65
2022/08/22 00:32:38;;;;;;;0.10;0.10;;;;;;;16.11;100.00;98135.49;1699807;84;25715;-65
2022/08/22 00:35:27;;;;;;;1.85;0.30;;;;;;;16.09;100.00;98132.31;1644301;87;25760;-64
2022/08/22 00:38:16;;;;;;;2.87;0.20;;;;;;;16.07;100.00;98140.97;1644939;87;25778;-64
2022/08/22 00:41:02;;;;;;;1.35;0.35;;;;;;;16.07;100.00;98131.87;1644919;87;27759;-65
2022/08/22 00:44:07;;;;;;;0.20;0.20;;;;;;;16.03;100.00;98122.92;1631015;85;25839;-65
2022/08/22 00:47:11;;;;;;;0.10;0.10;;;;;;;15.98;100.00;98125.19;1614719;88;25584;-66
2022/08/22 00:50:08;;;;;;;0.10;0.10;;;;;;;15.93;100.00;98122.09;1605871;88;25756;-64
2022/08/22 00:53:02;;;;;;;0.30;0.20;;;;;;;15.91;100.00;98121.65;1614566;88;25501;-64
2022/08/22 00:55:58;;;;;;;0.47;0.20;;;;;;;15.91;100.00;98125.80;1614646;88;28701;-64
2022/08/22 00:58:56;;;;;;;1.37;0.30;;;;;;;15.88;100.00;98124.56;1590978;90;25973;-64
2022/08/22 01:01:31;;;;;;;0.20;0.20;;;;;;;15.84;100.00;98119.55;1617929;88;25655;-64
2022/08/22 01:04:21;;;;;;;0.20;0.20;;;;;;;15.86;100.00;98124.12;1590114;90;25736;-63
2022/08/22 01:07:10;;;;;;;1.03;0.20;;;;;;;15.88;100.00;98121.80;1567296;91;25552;-64
2022/08/22 01:09:57;;;;;;;0.17;0.17;;;;;;;15.85;100.00;98121.14;1559896;92;29570;-64
2022/08/22 01:12:55;;;;;;;0.30;0.25;;;;;;;15.85;100.00;98125.86;1599319;89;25731;-63
2022/08/22 01:15:28;;;;;;;0.60;0.25;;;;;;;15.84;100.00;98121.50;1531079;93;25723;-63
2022/08/22 01:18:22;;;;;;;0.30;0.30;;;;;;;15.81;100.00;98114.75;1542080;93;26030;-64
2022/08/22 01:21:17;;;;;;;0.30;0.10;;;;;;;15.86;100.00;98121.95;1542366;92;25746;-64
2022/08/22 01:24:00;;;;;;;0.13;0.10;;;;;;;15.85;100.00;98117.57;1542415;93;27404;-65
2022/08/22 01:26:59;;;;;;;0.20;0.20;;;;;;;15.81;100.00;98123.82;1542019;93;27119;-64
2022/08/22 01:30:06;;;;;;;0.13;0.13;;;;;;;15.80;100.00;98121.42;1531911;93;25928;-65
2022/08/22 01:32:55;;;;;;;0.45;0.30;;;;;;;15.79;100.00;98119.83;1532000;93;25871;-65
2022/08/22 01:35:47;;;;;;;0.23;0.20;;;;;;;15.77;100.00;98120.19;1540767;92;25597;-64
2022/08/22 01:38:55;;;;;;;0.88;0.17;;;;;;;15.79;100.00;98118.45;1556263;92;27401;-65
2022/08/22 01:41:52;;;;;;;0.20;0.20;;;;;;;15.76;100.00;98112.27;1556773;92;25940;-65
2022/08/22 01:44:42;;;;;;;0.40;0.20;;;;;;;15.78;100.00;98118.23;1611815;88;25571;-64
2022/08/22 01:47:38;;;;;;;0.40;0.23;;;;;;;15.76;100.00;98115.84;1570194;91;25732;-65
2022/08/22 01:50:26;;;;;;;0.20;0.20;;;;;;;15.75;100.00;98116.98;1596101;89;25503;-65
2022/08/22 01:53:18;;;;;;;0.20;0.20;;;;;;;15.73;100.00;98115.17;1612759;88;28304;-65
2022/08/22 01:56:01;;;;;;;0.10;0.10;;;;;;;15.76;100.00;98110.31;1618446;88;25647;-65
2022/08/22 01:58:32;;;;;;;1.27;0.28;;;;;;;15.78;100.00;98111.33;1618777;88;25544;-65
2022/08/22 02:01:37;;;;;;;0.80;0.20;;;;;;;15.80;100.00;98117.27;1618564;88;25726;-65
2022/08/22 02:04:14;;;;;;;0.37;0.13;;;;;;;15.79;100.00;98126.16;1681036;83;25615;-65
2022/08/22 02:07:09;;;;;;;0.55;0.15;;;;;;;15.77;100.00;98127.09;1711084;83;29563;-64
2022/08/22 02:10:01;;;;;;;2.17;0.30;;;;;;;15.78;100.00;98123.77;1710535;83;25494;-64
2022/08/22 02:13:09;;;;;;;0.20;0.20;;;;;;;15.81;100.00;98123.04;1711473;83;25580;-64
2022/08/22 02:15:56;;;;;;;0.28;0.20;;;;;;;15.75;100.00;98127.25;1650354;86;25731;-63
2022/08/22 02:18:33;;;;;;;0.55;0.40;;;;;;;15.72;100.00;98126.02;1625910;88;25668;-64
2022/08/22 02:21:23;;;;;;;0.20;0.20;;;;;;;15.72;100.00;98125.20;1616476;88;27342;-64
2022/08/22 02:23:56;;;;;;;0.10;0.10;;;;;;;15.71;100.00;98122.23;1626327;88;25755;-64
2022/08/22 02:26:56;;;;;;;0.28;0.23;;;;;;;15.69;100.00;98126.73;1626506;88;25622;-65
2022/08/22 02:30:04;;;;;;;1.43;0.27;;;;;;;15.67;100.00;98128.48;1625797;88;26381;-62
2022/08/22 02:32:38;;;;;;;0.40;0.25;;;;;;;15.64;100.00;98129.77;1626075;88;25654;-62
2022/08/22 02:35:25;;;;;;;1.00;0.20;;;;;;;15.58;100.00;98120.16;1617963;88;27437;-63
2022/08/22 02:38:15;;;;;;;1.00;0.20;;;;;;;15.57;100.00;98122.12;1626180;88;25851;-64
2022/08/22 02:41:17;;;;;;;0.17;0.17;;;;;;;15.58;100.00;98123.73;1625861;88;25528;-64
2022/08/22 02:44:25;;;;;;;0.10;0.10;;;;;;;15.60;100.00;98121.40;1621643;88;25702;-65
2022/08/22 02:47:15;;;;;;;0.17;0.17;;;;;;;15.60;100.00;98126.14;1614025;88;25678;-66
2022/08/22 02:50:06;;;;;;;1.20;0.20;;;;;;;15.62;100.00;98125.99;1614111;88;27639;-66
2022/08/22 02:53:07;;;;;;;0.20;0.20;;;;;;;15.66;100.00;98120.55;1620822;87;27214;-68
2022/08/22 02:55:55;;;;;;;;;;;;;;;15.67;100.00;98122.14;1701491;84;25726;-67
2022/08/22 02:58:50;;;;;;;0.60;0.30;;;;;;;15.71;100.00;98124.40;1703622;84;25751;-68
2022/08/22 03:01:31;;;;;;;0.25;0.23;;;;;;;15.69;100.00;98123.98;1703525;84;25478;-67
2022/08/22 03:04:22;;;;;;;0.33;0.20;;;;;;;15.70;100.00;98122.80;1691644;84;28497;-68
2022/08/22 03:07:15;;;;;;;0.50;0.20;;;;;;;15.71;100.00;98127.77;1703069;84;25418;-68
2022/08/22 03:09:48;;;;;;;0.20;0.20;;;;;;;15.72;100.00;98125.20;1703552;84;25658;-69
2022/08/22 03:12:50;;;;;;;0.23;0.23;;;;;;;15.70;100.00;98114.52;1703164;84;26589;-69
2022/08/22 03:15:56;;;;;;;1.55;0.40;;;;;;;15.71;100.00;98120.86;1702945;84;25594;-68
2022/08/22 03:18:42;;;;;;;0.30;0.30;;;;;;;15.73;100.00;98115.75;1703477;84;27384;-68
2022/08/22 03:21:19;;;;;;;0.55;0.30;;;;;;;15.73;100.00;98114.37;1703650;84;25476;-68
2022/08/22 03:23:56;;;;;;;0.65;0.30;;;;;;;15.75;100.00;98110.67;1703069;84;25639;-69
2022/08/22 03:26:31;;;;;;;0.70;0.40;;;;;;;15.73;100.00;98111.03;1702773;84;26198;-69
2022/08/22 03:29:14;;;;;;;0.62;0.40;;;;;;;15.71;100.00;98108.42;1703349;84;25473;-68
2022/08/22 03:32:08;;;;;;;0.45;0.30;;;;;;;15.71;100.00;98107.83;1702888;84;28884;-69
2022/08/22 03:34:36;;;;;;;0.60;0.60;;;;;;;15.72;100.00;98114.97;1703179;84;25450;-69
2022/08/22 03:37:27;;;;;;;4.10;0.50;;;;;;;15.75;100.00;98121.72;1703535;84;25456;-69
2022/08/22 03:40:02;;;;;;;0.30;0.30;;;;;;;15.75;100.00;98116.98;1702823;84;26778;-69
2022/08/22 03:43:16;;;;;;;0.50;0.50;;;;;;;15.75;100.00;98122.50;1703361;84;25458;-68
2022/08/22 03:46:26;;;;;;;2.00;0.60;;;;;;;15.72;100.00;98108.63;1642889;87;27418;-68
2022/08/22 03:49:25;;;;;;;0.72;0.53;;;;;;;15.69;100.00;98110.17;1643665;87;25561;-68
2022/08/22 03:52:13;;;;;;;0.80;0.70;;;;;;;15.67;100.00;98110.53;1643424;87;25699;-69
2022/08/22 03:55:03;;;;;;;4.33;0.75;;;;;;;15.66;100.00;98107.53;1643400;87;25911;-69
2022/08/22 03:57:53;;;;;;;1.22;0.60;;;;;;;15.70;100.00;98109.56;1642522;87;26261;-70
2022/08/22 04:00:35;;;;;;;;;;;;;;;15.73;100.00;98110.22;1645039;87;29509;-69
2022/08/22 04:03:58;;;;;;;1.72;0.90;;;;;;;15.70;100.00;98114.52;1643090;87;25937;-70
2022/08/22 04:06:49;;;;;;;1.67;1.10;;;;;;;15.73;100.00;98117.13;1643502;87;25684;-69
2022/08/22 04:09:42;;;;;;;1.25;1.00;;;;;;;15.73;100.00;98112.41;1642961;87;25837;-69
2022/08/22 04:12:43;;;;;;;0.90;0.90;;;;;;;15.75;100.00;98114.81;1643011;87;25569;-69
2022/08/22 04:15:21;;;;;;;1.55;1.20;;;;;;;15.77;100.00;98123.52;1643666;87;27397;-69
2022/08/22 04:18:26;;;;;;;1.87;1.30;;;;;;;15.78;100.00;98117.64;1673901;85;25714;-68
2022/08/22 04:21:06;;;;;;;1.65;1.42;;;;;;;15.79;100.00;98130.31;1678967;85;25498;-69
2022/08/22 04:23:46;;;;;;;1.55;1.20;;;;;;;15.82;100.00;98131.54;1679111;85;26363;-67
2022/08/22 04:26:41;;;;;;;1.42;1.12;;;;;;;15.82;100.00;98128.77;1679426;85;25686;-67
2022/08/22 04:29:21;;;;;;;2.55;1.37;;;;;;;15.80;100.00;98133.28;1589992;90;27460;-67
2022/08/22 04:32:25;;;;;;;1.37;1.27;;;;;;;15.81;100.00;98132.70;1611477;88;25872;-68
2022/08/22 04:35:09;;;;;;;1.22;1.10;;;;;;;15.83;100.00;98130.36;1618367;88;25635;-68
2022/08/22 04:37:49;;;;;;;1.80;1.42;;;;;;;15.80;100.00;98144.90;1593473;90;26152;-68
2022/08/22 04:40:36;;;;;;;2.55;1.52;;;;;;;15.82;100.00;98145.35;1593065;90;25450;-67
2022/08/22 04:43:10;;;;;;;1.60;1.40;;;;;;;15.85;100.00;98149.34;1593372;90;28304;-67
2022/08/22 04:45:47;;;;;;;2.02;1.60;;;;;;;15.88;100.00;98156.34;1592360;90;27187;-66
2022/08/22 04:48:21;;;;;;;1.95;1.70;;;;;;;15.90;100.00;98156.79;1593383;90;25575;-67
2022/08/22 04:51:14;;;;;;;2.47;1.70;;;;;;;15.91;100.00;98164.48;1593306;90;25721;-67
2022/08/22 04:54:15;;;;;;;1.85;1.60;;;;;;;15.91;100.00;98165.86;1592757;90;25542;-67
2022/08/22 04:57:34;;;;;;;1.95;1.72;;;;;;;15.90;100.00;98167.84;1593422;90;27678;-67
2022/08/22 05:00:21;;;;;;;2.27;1.85;;;;;;;15.93;100.00;98165.73;1514537;94;25542;-67
2022/08/22 05:02:55;;;;;;;2.05;1.87;;;;;;;15.94;100.00;98162.38;1514564;94;25794;-67
2022/08/22 05:05:26;;;;;;;1.95;1.70;;;;;;;15.95;100.00;98169.52;1525024;90;26485;-67
2022/08/22 05:07:59;;;;;;;3.17;2.22;;;;;;;15.96;100.00;98168.34;1578023;90;25513;-67
2022/08/22 05:10:32;;;;;;;2.20;2.00;;;;;;;16.00;100.00;98176.16;1578091;90;27480;-67
2022/08/22 05:13:24;;;;;;;3.00;2.05;;;;;;;16.02;100.00;98173.84;1577663;90;25784;-67
2022/08/22 05:15:56;;;;;;;2.55;2.00;;;;;;;16.05;100.00;98178.64;1597170;89;25638;-67
2022/08/22 05:18:26;;;;;;;3.22;2.22;;;;;;;16.07;100.00;98178.84;1599113;89;28124;-67
2022/08/22 05:20:54;;;;;;;;;;;;;;;16.10;100.00;98180.89;1600672;89;25777;-67
2022/08/22 05:23:27;;;;;;;3.65;2.30;;;;;;;16.08;100.00;98181.83;1599044;89;28444;-66
2022/08/22 05:25:58;;;;;;;2.70;2.10;;;;;;;16.03;100.00;98184.30;1599002;89;25670;-67
2022/08/22 05:28:50;;;;;;;;;;;;;;;16.02;100.00;98181.31;1617172;88;25562;-68
2022/08/22 05:31:22;;;;;;;2.37;2.17;;;;;;;16.02;100.00;98185.47;1622461;88;26731;-69
2022/08/22 05:33:54;;;;;;;2.67;2.33;;;;;;;16.06;100.00;98184.95;1621692;88;25486;-67
2022/08/22 05:36:27;;;;;;;2.25;2.02;;;;;;;16.08;100.00;98184.02;1674681;84;27409;-68
2022/08/22 05:39:07;;;;;;;3.62;2.45;;;;;;;16.09;100.00;98183.45;1711995;83;25992;-67
2022/08/22 05:41:37;;;;;;;3.00;2.37;;;;;;;16.10;100.00;98189.99;1711080;83;25681;-67
2022/08/22 05:44:07;;;;;;;2.62;2.40;;;;;;;16.08;100.00;98195.07;1712160;83;25594;-68
2022/08/22 05:46:48;;;;;;;3.02;2.72;;;;;;;16.07;100.00;98198.20;1711627;83;25437;-69
2022/08/22 05:49:38;;;;;;;2.37;2.17;;;;;;;16.08;100.00;98195.64;1711827;83;27671;-68
2022/08/22 05:52:39;;;;;;;3.25;2.50;;;;;;;16.11;100.00;98203.21;1712193;83;25731;-69
2022/08/22 05:55:29;;;;;;;2.95;2.65;;;;;;;16.12;100.00;98197.32;1712210;83;25673;-69
2022/08/22 05:58:36;;;;;;;3.95;2.72;;;;;;;16.12;100.00;98208.38;1712165;83;25677;-68
2022/08/22 06:01:38;;;;;;;3.08;2.72;;;;;;;16.12;100.00;98207.59;1711825;83;25634;-68
2022/08/22 06:04:16;;;;;;;3.42;2.70;;;;;;;16.14;100.00;98214.92;1711741;83;27446;-67
2022/08/22 06:06:47;;;;;;;3.55;2.95;;;;;;;16.18;100.00;98206.93;1711714;83;25436;-67
2022/08/22 06:09:49;;;;;;;3.35;2.90;;;;;;;16.22;100.00;98204.25;1711263;83;25680;-67
2022/08/22 06:12:33;;;;;;;2.70;2.50;;;;;;;16.26;100.00;98211.25;1711857;83;27833;-67
2022/08/22 06:15:29;;;;;;;2.92;2.65;;;;;;;16.30;100.00;98213.50;1653426;86;25576;-67
2022/08/22 06:18:04;;;;;;;4.10;2.90;;;;;;;16.30;100.00;98211.52;1653750;86;27594;-67
2022/08/22 06:20:44;;;;;;;3.00;2.70;;;;;;;16.35;100.00;98211.02;1653636;86;25544;-67
2022/08/22 06:23:21;;;;;;;2.92;2.72;;;;;;;16.29;100.00;98205.78;1653840;86;25544;-66
2022/08/22 06:25:50;;;;;;;3.20;2.80;;;;;;;16.31;100.00;98202.65;1653563;86;26498;-67
2022/08/22 06:28:22;;;;;;;4.33;2.85;;;;;;;16.31;100.00;98209.56;1654786;86;25722;-66
2022/08/22 06:30:52;;;;;;;3.55;2.87;;;;;;;16.29;100.00;98211.30;1656165;86;28472;-65
2022/08/22 06:33:26;;;;;;;4.33;2.92;;;;;;;16.34;100.00;98209.41;1656360;86;25906;-66
2022/08/22 06:39:26;;;;;;;3.47;3.10;;;;;;;16.38;100.00;98214.45;1656022;86;25580;-66
2022/08/22 06:42:14;;;;;;;3.02;2.72;;;;;;;16.39;100.00;98224.33;1656041;86;25749;-66
2022/08/22 06:44:49;;;;;;;3.67;2.80;;;;;;;16.41;100.00;98220.03;1654097;86;27457;-66
2022/08/22 06:47:29;;;;;;;3.83;3.33;;;;;;;16.42;100.00;98223.61;1653532;86;25772;-66
2022/08/22 06:50:00;;;;;;;4.12;3.00;;;;;;;16.40;100.00;98223.16;1656478;86;25571;-65
2022/08/22 06:52:32;;;;;;;3.72;2.90;;;;;;;16.40;100.00;98219.82;1702218;83;25775;-65
2022/08/22 06:55:04;;;;;;;4.17;2.80;;;;;;;16.43;100.00;98224.63;1712515;83;25653;-65
2022/08/22 06:57:43;;;;;;;3.37;3.08;;;;;;;16.41;100.00;98221.41;1712251;83;27534;-65
2022/08/22 07:00:16;;;;;;;5.92;3.20;;;;;;;16.42;100.00;98223.03;1691407;84;25446;-65
2022/08/22 07:02:47;;;;;;;5.12;2.90;;;;;;;16.44;100.00;98228.20;1712354;83;25531;-66
2022/08/22 07:05:22;;;;;;;4.75;3.40;;;;;;;16.50;100.00;98224.55;1712356;83;25749;-65
2022/08/22 07:07:49;;;;;;;4.95;3.50;;;;;;;16.52;100.00;98230.53;1711551;83;25720;-65
2022/08/22 07:10:16;;;;;;;3.85;3.40;;;;;;;16.48;100.00;98231.83;1712278;83;27223;-65
2022/08/22 07:12:46;;;;;;;3.55;3.08;;;;;;;16.53;100.00;98225.20;1711901;83;25521;-65
2022/08/22 07:15:36;;;;;;;3.90;3.50;;;;;;;16.52;100.00;98225.78;1712551;83;25697;-65
2022/08/22 07:18:16;;;;;;;4.53;2.83;;;;;;;16.57;100.00;98230.22;1712172;83;25725;-65
2022/08/22 07:20:48;;;;;;;3.98;3.02;;;;;;;16.58;100.00;98233.20;1712505;83;25659;-64
2022/08/22 07:23:39;;;;;;;4.00;3.25;;;;;;;16.60;100.00;98229.49;1712193;83;27466;-64
2022/08/22 07:26:27;;;;;;;3.60;2.90;;;;;;;16.61;100.00;98233.07;1711866;83;25622;-64
2022/08/22 07:28:59;;;;;;;2.58;2.30;;;;;;;16.61;100.00;98231.08;1710315;83;25440;-64
2022/08/22 07:31:43;;;;;;;3.27;2.80;;;;;;;16.60;100.00;98228.11;1705702;83;25702;-64
2022/08/22 07:34:27;;;;;;;2.87;2.42;;;;;;;16.59;100.00;98227.09;1709141;83;25496;-64
2022/08/22 07:37:13;;;;;;;2.72;2.50;;;;;;;16.61;100.00;98233.85;1709264;84;29539;-64
2022/08/22 07:40:13;;;;;;;3.55;2.40;;;;;;;16.62;100.00;98234.09;1709119;84;25994;-64
2022/08/22 07:43:00;;;;;;;3.13;2.27;;;;;;;16.63;100.00;98238.45;1709432;84;25597;-63
2022/08/22 07:45:40;;;;;;;3.70;2.70;;;;;;;16.67;100.00;98233.78;1709552;84;25758;-63
2022/08/22 07:48:34;;;;;;;3.83;2.65;;;;;;;16.65;100.00;98229.21;1709618;84;25647;-64
2022/08/22 07:51:14;;;;;;;3.00;2.35;;;;;;;16.70;100.00;98236.42;1683249;83;27557;-63
2022/08/22 07:53:53;;;;;;;2.92;2.08;;;;;;;16.75;100.00;98238.09;1709315;84;25465;-63
2022/08/22 07:56:24;;;;;;;4.15;2.40;;;;;;;16.75;100.00;98239.47;1709066;84;25591;-62
2022/08/22 07:58:55;;;;;;;2.75;2.47;;;;;;;16.75;100.00;98230.56;1709245;84;25796;-63
2022/08/22 08:01:24;;;;;;;4.08;2.55;;;;;;;16.70;99.75;98239.75;1705649;84;25984;-63
2022/08/22 08:03:55;;;;;;;4.95;2.95;;;;;;;16.64;99.90;98235.11;1709182;83;27427;-63
2022/08/22 08:06:24;;;;;;;3.95;2.55;;;;;;;16.66;99.91;98234.14;1709510;83;25449;-62
2022/08/22 08:08:53;;;;;;;3.60;2.65;;;;;;;16.71;100.00;98231.66;1709393;84;25468;-63
2022/08/22 08:11:23;;;;;;;4.37;2.60;;;;;;;16.66;99.94;98234.95;1709532;83;25748;-62
2022/08/22 08:13:57;;;;;;;5.62;2.67;;;;;;;16.67;100.00;98232.99;1709623;83;25639;-62
2022/08/22 08:16:28;;;;;;;3.42;2.67;;;;;;;16.68;100.00;98242.31;1710036;83;27638;-62
2022/08/22 08:18:58;;;;;;;4.08;3.30;;;;;;;16.72;100.00;98242.97;1709479;83;25752;-62
2022/08/22 08:21:38;;;;;;;3.05;2.55;;;;;;;16.71;100.00;98244.11;1709613;83;25523;-62
2022/08/22 08:24:12;;;;;;;;;;;;;;;16.66;99.84;98237.72;1712227;83;26891;-62
2022/08/22 08:29:33;;;;;;;3.67;3.02;;;;;;;16.73;100.00;98234.88;1709223;83;25690;-62
2022/08/22 08:32:01;;;;;;;2.85;2.12;;;;;;;16.75;100.00;98234.72;1709602;83;25705;-62
2022/08/22 08:34:31;;;;;;;4.65;2.92;;;;;;;16.76;99.83;98236.91;1709597;83;25499;-62
2022/08/22 08:37:19;;;;;;;8.23;3.37;;;;;;;16.74;99.72;98237.84;1709613;83;25863;-62
2022/08/22 08:39:53;;;;;;;4.60;3.15;;;;;;;16.74;99.82;98233.70;1706164;84;25622;-62
2022/08/22 08:45:59;;;;;;;6.10;3.50;;;;;;;16.82;100.00;98234.06;1709350;84;25573;-61
2022/08/22 08:48:48;;;;;;;5.30;3.75;;;;;;;16.84;99.71;98238.63;1709320;83;25520;-61
2022/08/22 08:51:47;;;;;;;5.75;3.77;;;;;;;16.87;100.00;98231.58;1709586;83;25854;-61
2022/08/22 08:54:48;;;;;;;5.03;3.70;;;;;;;16.87;99.64;98226.83;1709657;83;25507;-61
2022/08/22 08:57:29;;;;;;;5.28;3.92;;;;;;;16.85;99.60;98212.58;1709288;84;25924;-61
2022/08/22 09:00:16;;;;;;;;;;;;;;;16.86;99.75;98214.17;1711750;84;25659;-62
2022/08/22 09:03:08;;;;;;;5.40;4.03;;;;;;;16.87;99.64;98212.99;1705669;84;25649;-62
2022/08/22 09:05:52;;;;;;;6.20;4.05;;;;;;;16.89;99.95;98218.97;1709295;83;25671;-62
2022/08/22 09:08:54;;;;;;;7.47;4.53;;;;;;;16.86;99.14;98229.96;1709264;83;25724;-61
2022/08/22 09:11:49;;;;;;;6.35;4.67;;;;;;;16.73;98.56;98234.88;1648733;87;27458;-62
2022/08/22 09:14:33;;;;;;;6.37;3.62;;;;;;;16.74;99.95;98231.74;1648886;87;25697;-62
2022/08/22 09:17:34;;;;;;;6.58;4.75;;;;;;;16.73;99.13;98244.55;1647098;87;25669;-62
2022/08/22 09:20:15;;;;;;;6.33;4.75;;;;;;;16.74;99.39;98247.53;1648856;87;25970;-62
2022/08/22 09:23:04;;;;;;;7.37;4.40;;;;;;;16.78;99.84;98245.66;1648464;87;25750;-62
2022/08/22 09:25:55;;;;;;;8.28;4.70;;;;;;;16.77;99.06;98244.84;1648627;87;28121;-61
2022/08/22 09:28:52;;;;;;;5.70;4.25;;;;;;;16.81;99.59;98243.52;1649315;86;25895;-61
2022/08/22 09:31:29;;;;;;;10.08;5.37;;;;;;;16.81;99.24;98244.89;1656057;86;25770;-62
2022/08/22 09:34:07;;;;;;;7.40;4.95;;;;;;;16.81;99.18;98247.09;1656282;86;25742;-62
2022/08/22 09:36:53;;;;;;;4.78;4.20;;;;;;;16.81;99.07;98247.09;1655929;86;25737;-61
2022/08/22 09:39:36;;;;;;;4.47;4.00;;;;;;;16.82;99.13;98247.90;1655308;86;27532;-61
2022/08/22 09:42:23;;;;;;;5.42;4.03;;;;;;;16.85;99.06;98251.89;1656153;86;25677;-62
2022/08/22 09:45:19;;;;;;;6.10;4.10;;;;;;;16.84;99.01;98258.00;1670137;83;25737;-62
2022/08/22 09:48:12;;;;;;;4.90;3.50;;;;;;;16.84;99.26;98253.07;1712044;83;25727;-61
2022/08/22 09:50:54;;;;;;;4.80;3.80;;;;;;;16.79;98.74;98251.40;1699906;84;25615;-61
2022/08/22 09:53:59;;;;;;;6.80;3.92;;;;;;;16.85;99.17;98254.66;1703165;83;27480;-61
2022/08/22 09:56:50;;;;;;;5.42;3.77;;;;;;;16.85;99.15;98258.81;1705422;83;26000;-61
2022/08/22 09:59:41;;;;;;;4.53;3.45;;;;;;;16.86;99.08;98250.14;1712214;83;25532;-62
2022/08/22 10:02:46;;;;;;;5.37;4.20;;;;;;;16.88;99.07;98250.59;1712326;83;26205;-61
2022/08/22 10:05:26;;;;;;;6.17;3.98;;;;;;;16.92;99.36;98251.45;1654730;86;25510;-61
2022/08/22 10:08:26;;;;;;;5.50;4.08;;;;;;;16.96;98.71;98252.09;1654926;86;28371;-61
2022/08/22 10:11:12;;;;;;;5.95;3.75;;;;;;;16.99;99.08;98256.91;1654025;86;25557;-61
2022/08/22 10:13:54;;;;;;;5.15;3.75;;;;;;;16.99;98.21;98254.14;1654771;86;25560;-61
2022/08/22 10:16:35;;;;;;;5.45;4.20;;;;;;;16.97;98.46;98260.61;1654703;86;25903;-61
2022/08/22 10:19:22;;;;;;;7.42;4.50;;;;;;;16.94;98.72;98263.53;1654467;86;25734;-61
2022/08/22 10:22:17;;;;;;;6.60;4.67;;;;;;;16.92;99.02;98257.55;1654424;86;29672;-61
2022/08/22 10:25:07;;;;;;;6.65;4.70;;;;;;;16.96;99.29;98259.83;1654790;86;25494;-60
2022/08/22 10:28:07;;;;;;;4.78;4.08;;;;;;;16.98;98.77;98261.63;1654585;86;25797;-61
2022/08/22 10:31:00;;;;;;;6.15;4.03;;;;;;;16.92;98.48;98261.70;1648293;86;25929;-61
2022/08/22 10:33:44;;;;;;;5.08;4.03;;;;;;;16.86;98.80;98263.98;1652018;86;25646;-60
2022/08/22 10:36:18;;;;;;;6.67;4.53;;;;;;;16.86;98.81;98267.32;1651954;86;27671;-61
2022/08/22 10:38:50;;;;;;;4.53;3.70;;;;;;;16.87;99.42;98271.11;1651851;86;25907;-61
2022/08/22 10:41:41;;;;;;;5.28;4.08;;;;;;;16.91;99.60;98273.38;1685824;83;25667;-61
2022/08/22 10:44:16;;;;;;;;;;;;;;;16.96;99.28;98266.75;1714296;83;26763;-61
2022/08/22 10:46:57;;;;;;;5.85;4.22;;;;;;;17.00;99.30;98268.99;1712004;83;25631;-61
2022/08/22 10:49:35;;;;;;;5.35;4.42;;;;;;;17.01;99.49;98267.03;1710590;83;27012;-61
2022/08/22 10:52:16;;;;;;;7.67;4.45;;;;;;;17.03;100.00;98263.30;1711595;83;25947;-61
2022/08/22 10:54:48;;;;;;;6.05;4.58;;;;;;;17.04;99.61;98270.45;1703908;83;25614;-61
2022/08/22 10:57:35;;;;;;;7.30;4.65;;;;;;;17.06;99.66;98268.10;1712023;83;25731;-62
2022/08/22 11:00:19;;;;;;;4.87;3.80;;;;;;;17.10;99.46;98268.20;1711772;83;25607;-62
2022/08/22 11:03:08;;;;;;;5.33;4.28;;;;;;;17.14;100.00;98270.45;1711894;83;27427;-64
2022/08/22 11:05:44;;;;;;;5.00;4.35;;;;;;;17.13;99.39;98275.17;1711066;83;25612;-64
2022/08/22 11:08:21;;;;;;;6.97;4.62;;;;;;;17.11;99.33;98271.99;1712003;83;25683;-65
2022/08/22 11:11:02;;;;;;;5.45;4.30;;;;;;;17.16;99.73;98270.28;1711688;83;25780;-65
2022/08/22 11:13:52;;;;;;;6.22;4.90;;;;;;;17.25;100.00;98272.84;1655776;86;25860;-65
2022/08/22 11:16:36;;;;;;;6.03;4.47;;;;;;;17.28;98.96;98280.41;1616331;87;27500;-65
2022/08/22 11:19:16;;;;;;;5.55;4.37;;;;;;;17.23;99.24;98284.05;1630588;87;25964;-65
2022/08/22 11:21:57;;;;;;;6.87;5.35;;;;;;;17.29;99.10;98283.96;1627813;87;26599;-65
2022/08/22 11:25:02;;;;;;;5.87;4.60;;;;;;;17.28;99.52;98267.95;1627649;87;25796;-65
2022/08/22 11:27:55;;;;;;;7.05;4.85;;;;;;;17.28;99.08;98274.06;1628637;87;25448;-65
2022/08/22 11:30:42;;;;;;;5.58;4.17;;;;;;;17.31;99.44;98274.70;1627290;86;28705;-65
2022/08/22 11:33:28;;;;;;;7.75;4.65;;;;;;;17.30;99.13;98271.13;1624382;87;25789;-65
2022/08/22 11:36:23;;;;;;;5.30;4.60;;;;;;;17.37;99.59;98275.20;1655648;86;25597;-65
2022/08/22 11:39:19;;;;;;;6.03;4.37;;;;;;;17.42;99.64;98269.36;1650725;86;26544;-65
2022/08/22 11:42:09;;;;;;;6.37;4.45;;;;;;;17.50;99.45;98273.83;1649961;86;25456;-65
2022/08/22 11:44:42;;;;;;;7.37;4.95;;;;;;;17.54;98.95;98271.14;1655266;86;27522;-66
2022/08/22 11:47:12;;;;;;;5.65;4.62;;;;;;;17.53;98.73;98277.25;1655678;86;25667;-65
2022/08/22 11:50:12;;;;;;;7.05;4.80;;;;;;;17.55;98.83;98271.34;1661456;83;25653;-64
2022/08/22 11:52:55;;;;;;;5.35;4.40;;;;;;;17.59;98.92;98274.18;1692663;83;25951;-65
2022/08/22 11:55:26;;;;;;;5.92;4.30;;;;;;;17.63;98.76;98275.84;1692327;83;25454;-66
2022/08/22 11:58:24;;;;;;;6.75;5.08;;;;;;;17.59;98.27;98272.22;1690642;83;27498;-64
2022/08/22 12:01:14;;;;;;;6.03;4.70;;;;;;;17.56;98.40;98273.74;1696226;83;25603;-64
2022/08/22 12:03:58;;;;;;;7.00;5.28;;;;;;;17.56;98.34;98265.42;1687265;83;25697;-63
2022/08/22 12:06:48;;;;;;;7.08;5.35;;;;;;;17.59;99.10;98266.67;1666964;85;25889;-63
2022/08/22 12:09:38;;;;;;;7.70;5.47;;;;;;;17.66;99.08;98267.36;1697344;83;25657;-64
2022/08/22 12:12:25;;;;;;;7.27;5.57;;;;;;;17.71;98.78;98271.22;1709620;83;27600;-64
2022/08/22 12:15:28;;;;;;;6.22;4.85;;;;;;;17.72;98.27;98263.11;1666401;83;26155;-64
2022/08/22 12:18:34;;;;;;;7.33;5.78;;;;;;;17.77;98.02;98264.77;1686102;83;25436;-64
2022/08/22 12:21:21;;;;;;;8.75;5.83;;;;;;;17.75;98.25;98267.91;1694392;83;27761;-63
2022/08/22 12:24:12;;;;;;;8.58;6.20;;;;;;;17.67;98.41;98264.22;1712090;83;25459;-63
2022/08/22 12:27:08;;;;;;;8.18;6.20;;;;;;;17.69;98.83;98263.85;1712014;83;28392;-62
2022/08/22 12:30:03;;;;;;;8.33;6.20;;;;;;;17.78;99.23;98264.39;1710244;83;25599;-63
2022/08/22 12:33:05;;;;;;;8.23;6.45;;;;;;;17.90;99.60;98257.03;1676148;85;25487;-62
2022/08/22 12:36:04;;;;;;;8.98;6.80;;;;;;;17.96;98.70;98256.14;1676137;85;25846;-62
2022/08/22 12:39:09;;;;;;;8.93;6.70;;;;;;;17.99;98.58;98251.23;1676147;85;25504;-62
2022/08/22 12:42:06;;;;;;;9.38;7.10;;;;;;;17.96;98.29;98245.83;1676347;85;27823;-62
2022/08/22 12:45:10;;;;;;;9.60;6.97;;;;;;;17.99;98.40;98250.63;1675994;85;25529;-61
2022/08/22 12:48:19;;;;;;;8.70;6.47;;;;;;;18.06;98.74;98243.82;1652217;86;25495;-61
2022/08/22 12:51:17;;;;;;;9.75;7.00;;;;;;;18.08;97.98;98246.22;1651983;86;25681;-61
2022/08/22 12:54:13;;;;;;;11.15;7.60;;;;;;;18.07;97.87;98240.44;1611013;89;25547;-61
2022/08/22 12:56:56;;;;;;;8.78;7.03;;;;;;;18.07;98.13;98239.06;1593911;90;27559;-61
2022/08/22 12:59:30;;;;;;;11.20;7.50;;;;;;;18.09;97.94;98242.84;1593830;90;25816;-61
2022/08/22 13:02:02;;;;;;;10.23;7.40;;;;;;;18.09;97.90;98242.84;1593734;90;25530;-61
2022/08/22 13:04:32;;;;;;;10.93;7.15;;;;;;;18.14;98.47;98241.95;1594036;90;25760;-61
2022/08/22 13:07:07;;;;;;;11.30;7.85;;;;;;;18.18;98.08;98240.63;1593863;89;25720;-61